createdAt,value
2023-02-04T00:00:57.350Z,7.08
2023-02-04T00:06:00.651Z,7.67
2023-02-04T00:11:05.483Z,7.78
2023-02-04T00:16:08.984Z,7.73
2023-02-04T00:21:12.401Z,7.76
2023-02-04T00:26:17.032Z,7.79
2023-02-04T00:31:20.421Z,7.41
2023-02-04T00:36:23.607Z,7.52
2023-02-04T00:41:28.166Z,7.43
2023-02-04T00:46:31.451Z,7.53
2023-02-04T00:51:34.601Z,7.41
2023-02-04T00:56:39.144Z,7.43
2023-02-04T01:01:42.323Z,7.69
2023-02-04T01:06:45.510Z,7.52
2023-02-04T01:11:50.022Z,7.50
2023-02-04T01:16:53.173Z,7.48
2023-02-04T01:21:56.409Z,7.44
2023-02-04T01:27:00.940Z,7.38
2023-02-04T01:32:04.117Z,7.45
2023-02-04T01:37:07.256Z,7.24
2023-02-04T01:42:12.862Z,7.16
2023-02-04T01:47:16.205Z,7.02
2023-02-04T01:52:20.041Z,7.06
2023-02-04T01:57:24.614Z,7.17
2023-02-04T02:02:42.456Z,7.29
2023-02-04T02:07:46.138Z,7.20
2023-02-04T02:12:51.034Z,7.07
2023-02-04T02:17:55.064Z,6.99
2023-02-04T02:23:06.574Z,6.91
2023-02-04T02:28:14.723Z,7.02
2023-02-04T02:33:21.148Z,7.13
2023-02-04T02:38:24.420Z,7.06
2023-02-04T02:43:30.489Z,7.11
2023-02-04T02:48:33.798Z,7.13
2023-02-04T02:53:37.105Z,7.16
2023-02-04T02:58:41.671Z,7.19
2023-02-04T03:03:48.472Z,7.14
2023-02-04T03:08:55.381Z,7.15
2023-02-04T03:14:02.457Z,7.12
2023-02-04T03:19:07.804Z,7.04
2023-02-04T03:24:10.718Z,6.89
2023-02-04T03:29:15.342Z,6.95
2023-02-04T03:34:18.536Z,6.91
2023-02-04T03:39:21.656Z,6.94
2023-02-04T03:44:27.058Z,6.99
2023-02-04T03:49:29.972Z,6.88
2023-02-04T03:54:32.846Z,6.87
2023-02-04T03:59:37.091Z,6.91
2023-02-04T04:04:39.975Z,6.86
2023-02-04T04:09:42.823Z,6.81
2023-02-04T04:14:47.103Z,6.71
2023-02-04T04:19:50.686Z,6.73
2023-02-04T04:24:53.515Z,6.69
2023-02-04T04:29:57.839Z,6.75
2023-02-04T04:35:00.710Z,6.65
2023-02-04T04:40:03.586Z,6.73
2023-02-04T04:45:09.975Z,6.67
2023-02-04T04:50:12.827Z,6.59
2023-02-04T04:55:15.887Z,6.60
2023-02-04T05:00:21.794Z,6.60
2023-02-04T05:05:24.719Z,6.56
2023-02-04T05:10:27.727Z,6.58
2023-02-04T05:15:32.054Z,6.54
2023-02-04T05:20:35.025Z,6.43
2023-02-04T05:25:37.997Z,6.40
2023-02-04T05:30:42.323Z,6.37
2023-02-04T05:35:45.293Z,6.31
2023-02-04T05:40:48.244Z,6.42
2023-02-04T05:45:52.685Z,6.41
2023-02-04T05:50:55.772Z,6.28
2023-02-04T05:55:58.773Z,6.31
2023-02-04T06:01:03.754Z,6.22
2023-02-04T06:06:06.941Z,6.14
2023-02-04T06:11:09.927Z,6.18
2023-02-04T06:16:15.031Z,6.18
2023-02-04T06:21:18.236Z,6.16
2023-02-04T06:26:21.231Z,6.21
2023-02-04T06:31:25.701Z,6.16
2023-02-04T06:36:28.737Z,6.17
2023-02-04T06:41:31.709Z,6.19
2023-02-04T06:46:36.209Z,6.20
2023-02-04T06:51:39.152Z,6.13
2023-02-04T06:56:43.786Z,6.19
2023-02-04T07:01:48.129Z,6.20
2023-02-04T07:06:51.147Z,6.16
2023-02-04T07:11:54.282Z,6.22
2023-02-04T07:16:59.015Z,6.17
2023-02-04T07:22:01.983Z,6.17
2023-02-04T07:27:04.935Z,6.11
2023-02-04T07:32:09.352Z,6.10
2023-02-04T07:37:12.321Z,6.07
2023-02-04T07:42:15.451Z,6.10
2023-02-04T07:47:19.876Z,6.10
2023-02-04T07:52:22.823Z,6.07
2023-02-04T07:57:25.738Z,6.08
2023-02-04T08:02:30.147Z,6.04
2023-02-04T08:07:33.064Z,6.13
2023-02-04T08:12:36.012Z,6.21
2023-02-04T08:17:40.397Z,6.30
2023-02-04T08:22:43.346Z,6.32
2023-02-04T08:27:46.339Z,6.37
2023-02-04T08:32:50.997Z,6.44
2023-02-04T08:37:53.970Z,6.60
2023-02-04T08:42:56.973Z,6.91
2023-02-04T08:48:01.333Z,7.13
2023-02-04T08:53:04.458Z,7.44
2023-02-04T08:58:07.389Z,7.70
2023-02-04T09:03:11.748Z,7.97
2023-02-04T09:08:15.926Z,8.10
2023-02-04T09:13:18.904Z,8.32
2023-02-04T09:18:25.154Z,8.46
2023-02-04T09:23:28.148Z,8.54
2023-02-04T09:28:31.115Z,8.69
2023-02-04T09:33:36.206Z,8.79
2023-02-04T09:38:39.135Z,8.89
2023-02-04T09:43:43.236Z,9.04
2023-02-04T09:48:47.633Z,9.12
2023-02-04T09:53:51.458Z,9.28
2023-02-04T09:58:54.468Z,9.37
2023-02-04T10:04:02.263Z,9.56
2023-02-04T10:09:05.464Z,9.67
2023-02-04T10:14:11.400Z,9.74
2023-02-04T10:19:16.764Z,9.88
2023-02-04T10:24:21.191Z,10.02
2023-02-04T10:29:26.008Z,10.20
2023-02-04T10:34:38.045Z,10.39
2023-02-04T10:39:44.289Z,10.41
2023-02-04T10:44:48.330Z,10.72
2023-02-04T10:49:56.447Z,10.87
2023-02-04T10:54:59.457Z,11.03
2023-02-04T11:00:04.106Z,11.14
2023-02-04T11:05:11.969Z,11.12
2023-02-04T11:10:16.422Z,11.51
2023-02-04T11:15:37.634Z,11.53
2023-02-04T11:20:42.205Z,11.64
2023-02-04T11:25:45.147Z,11.76
2023-02-04T11:30:48.059Z,11.79
2023-02-04T11:36:01.691Z,12.04
2023-02-04T11:41:04.621Z,12.30
2023-02-04T11:46:14.049Z,12.50
2023-02-04T11:51:19.388Z,12.68
2023-02-04T11:56:22.797Z,12.90
2023-02-04T12:01:26.458Z,13.20
2023-02-04T12:06:33.122Z,13.46
2023-02-04T12:11:36.442Z,13.83
2023-02-04T12:16:42.210Z,14.25
2023-02-04T12:21:46.725Z,15.07
2023-02-04T12:26:49.883Z,16.06
2023-02-04T12:31:53.074Z,17.08
2023-02-04T12:36:57.430Z,18.44
2023-02-04T12:42:00.282Z,19.62
2023-02-04T12:47:03.172Z,20.29
2023-02-04T12:52:07.573Z,20.52
2023-02-04T12:57:11.757Z,20.76
2023-02-04T13:02:14.685Z,20.47
2023-02-04T13:07:18.960Z,20.60
2023-02-04T13:12:21.825Z,20.33
2023-02-04T13:17:24.678Z,20.53
2023-02-04T13:22:29.109Z,20.61
2023-02-04T13:27:32.324Z,21.37
2023-02-04T13:32:35.508Z,21.64
2023-02-04T13:37:39.771Z,21.39
2023-02-04T13:42:42.602Z,20.76
2023-02-04T13:47:45.438Z,21.26
2023-02-04T13:52:49.706Z,20.80
2023-02-04T13:57:52.545Z,21.06
2023-02-04T14:02:56.653Z,21.12
2023-02-04T14:08:01.056Z,20.86
2023-02-04T14:13:03.897Z,20.75
2023-02-04T14:18:07.024Z,21.31
2023-02-04T14:23:11.999Z,21.80
2023-02-04T14:28:14.941Z,21.78
2023-02-04T14:33:18.333Z,22.14
2023-02-04T14:38:22.600Z,21.51
2023-02-04T14:43:25.702Z,22.02
2023-02-04T14:48:28.532Z,21.82
2023-02-04T14:53:32.811Z,20.80
2023-02-04T14:58:35.662Z,21.08
2023-02-04T15:03:38.503Z,21.12
2023-02-04T15:08:45.019Z,21.23
2023-02-04T15:13:47.976Z,21.84
2023-02-04T15:18:50.831Z,22.07
2023-02-04T15:23:55.063Z,21.26
2023-02-04T15:28:57.923Z,21.34
2023-02-04T15:34:01.291Z,21.90
2023-02-04T15:39:05.562Z,21.87
2023-02-04T15:44:08.482Z,21.22
2023-02-04T15:49:11.304Z,21.69
2023-02-04T15:54:15.550Z,20.84
2023-02-04T15:59:18.403Z,21.03
2023-02-04T16:04:21.266Z,21.55
2023-02-04T16:09:25.562Z,21.02
2023-02-04T16:14:28.412Z,20.64
2023-02-04T16:19:32.563Z,20.75
2023-02-04T16:24:36.864Z,21.36
2023-02-04T16:29:39.743Z,21.14
2023-02-04T16:34:42.908Z,20.94
2023-02-04T16:39:48.272Z,21.19
2023-02-04T16:44:51.128Z,21.13
2023-02-04T16:49:59.081Z,20.89
2023-02-04T16:55:03.307Z,20.57
2023-02-04T17:00:06.684Z,20.22
2023-02-04T17:05:09.779Z,19.83
2023-02-04T17:10:14.016Z,19.41
2023-02-04T17:15:16.996Z,19.07
2023-02-04T17:20:19.855Z,18.63
2023-02-04T17:25:24.383Z,17.95
2023-02-04T17:30:27.298Z,17.48
2023-02-04T17:35:30.717Z,16.49
2023-02-04T17:40:35.087Z,15.93
2023-02-04T17:45:38.163Z,15.55
2023-02-04T17:50:41.151Z,15.32
2023-02-04T17:55:45.583Z,14.89
2023-02-04T18:00:49.166Z,14.58
2023-02-04T18:05:53.619Z,14.24
2023-02-04T18:10:57.984Z,13.94
2023-02-04T18:16:01.746Z,13.65
2023-02-04T18:21:14.772Z,13.39
2023-02-04T18:26:20.064Z,13.37
2023-02-04T18:31:26.307Z,13.34
2023-02-04T18:36:29.329Z,13.25
2023-02-04T18:41:34.497Z,13.09
2023-02-04T18:46:38.429Z,13.19
2023-02-04T18:51:41.953Z,13.11
2023-02-04T18:56:46.299Z,13.11
2023-02-04T19:01:49.924Z,12.85
2023-02-04T19:06:55.164Z,12.58
2023-02-04T19:12:00.112Z,12.25
2023-02-04T19:17:16.893Z,12.25
2023-02-04T19:22:21.177Z,12.20
2023-02-04T19:27:29.335Z,12.03
2023-02-04T19:32:41.288Z,12.01
2023-02-04T19:37:44.201Z,11.72
2023-02-04T19:42:48.835Z,11.48
2023-02-04T19:47:52.588Z,11.10
2023-02-04T19:53:01.213Z,10.74
2023-02-04T19:58:15.239Z,10.79
2023-02-04T20:03:25.953Z,10.53
2023-02-04T20:08:46.753Z,10.68
2023-02-04T20:13:51.942Z,10.95
2023-02-04T20:18:55.903Z,11.32
2023-02-04T20:23:58.821Z,11.37
2023-02-04T20:29:03.221Z,11.27
2023-02-04T20:34:14.626Z,11.13
2023-02-04T20:39:25.709Z,11.06
2023-02-04T20:44:36.052Z,11.11
2023-02-04T20:49:41.208Z,10.82
2023-02-04T20:54:44.201Z,11.17
2023-02-04T20:59:49.804Z,11.24
2023-02-04T21:04:54.251Z,11.17
2023-02-04T21:09:58.048Z,11.10
2023-02-04T21:15:02.441Z,10.94
2023-02-04T21:20:05.634Z,10.91
2023-02-04T21:25:09.196Z,10.91
2023-02-04T21:30:14.031Z,10.42
2023-02-04T21:35:24.439Z,9.97
2023-02-04T21:40:27.774Z,9.47
2023-02-04T21:45:31.026Z,9.23
2023-02-04T21:50:36.439Z,9.02
2023-02-04T21:55:39.418Z,8.91
2023-02-04T22:00:42.328Z,8.80
2023-02-04T22:05:46.863Z,8.78
2023-02-04T22:10:49.885Z,8.68
2023-02-04T22:15:52.853Z,8.61
2023-02-04T22:20:57.347Z,8.71
2023-02-04T22:26:00.241Z,8.62
2023-02-04T22:31:03.234Z,8.60
2023-02-04T22:36:08.108Z,9.10
2023-02-04T22:41:11.044Z,9.06
2023-02-04T22:46:14.064Z,9.35
2023-02-04T22:51:18.426Z,9.55
2023-02-04T22:56:21.776Z,9.58
2023-02-04T23:01:24.705Z,9.39
2023-02-04T23:06:29.081Z,9.29
2023-02-04T23:11:32.028Z,9.09
2023-02-04T23:16:35.332Z,9.46
2023-02-04T23:21:39.811Z,9.47
2023-02-04T23:26:42.732Z,8.62
2023-02-04T23:31:45.722Z,8.79
2023-02-04T23:36:51.432Z,8.65
2023-02-04T23:41:54.468Z,8.59
2023-02-04T23:46:57.409Z,8.64
2023-02-04T23:52:02.053Z,9.02
2023-02-04T23:57:05.010Z,9.10
